Time;durP1;ratioP1;P1;durP2;ratioP2;P2;SDS_P1;SDS_P2;PMS_P1;PMS_P2;Temp;Humidity;BMP_temperature;BMP_pressure;BME280_temperature;BME280_humidity;BME280_pressure;Samples;Min_cycle;Max_cycle;Signal;HPM_P1;HPM_P2
2022/11/14 00:00:15;;;;;;;5.85;5.13;;;;;;;9.94;49.91;96231.69;4940056;29;20848;-64
2022/11/14 00:03:05;;;;;;;4.38;3.17;;;;;;;9.80;49.51;96233.63;4944843;28;20347;-63
2022/11/14 00:05:50;;;;;;;19.08;8.30;;;;;;;9.85;49.92;96235.63;4945160;29;20287;-65
2022/11/14 00:08:35;;;;;;;7.25;6.47;;;;;;;9.84;49.79;96237.41;4941083;29;20222;-65
2022/11/14 00:11:21;;;;;;;3.03;2.83;;;;;;;9.82;49.84;96228.16;4937391;29;20210;-64
2022/11/14 00:14:06;;;;;;;11.20;5.43;;;;;;;9.74;50.62;96233.72;4937902;29;20219;-63
2022/11/14 00:16:52;;;;;;;8.50;6.45;;;;;;;9.77;50.37;96233.28;4939530;29;20583;-63
2022/11/14 00:19:37;;;;;;;4.53;3.83;;;;;;;9.76;50.28;96231.69;4934354;29;20279;-65
2022/11/14 00:22:22;;;;;;;3.05;2.33;;;;;;;9.69;50.31;96233.56;4931612;29;20365;-63
2022/11/14 00:25:09;;;;;;;7.15;5.13;;;;;;;9.47;51.14;96232.38;4931543;29;20711;-64
2022/11/14 00:27:57;;;;;;;4.18;2.90;;;;;;;9.70;50.64;96232.53;4946062;29;20974;-64
2022/11/14 00:30:47;;;;;;;1.92;1.83;;;;;;;9.68;50.53;96224.91;4951023;28;20238;-64
2022/11/14 00:33:33;;;;;;;2.20;2.05;;;;;;;9.87;49.80;96233.56;4949105;28;20228;-64
2022/11/14 00:36:18;;;;;;;6.13;3.63;;;;;;;9.76;50.13;96211.53;4948763;28;20219;-64
2022/11/14 00:39:04;;;;;;;6.20;2.88;;;;;;;9.50;50.92;96234.56;4954786;28;20226;-63
2022/11/14 00:41:50;;;;;;;5.32;3.13;;;;;;;9.29;51.55;96214.03;4937130;29;20307;-63
2022/11/14 00:44:35;;;;;;;2.58;2.38;;;;;;;9.47;52.09;96227.91;4947361;29;20997;-64
2022/11/14 00:47:21;;;;;;;5.45;1.35;;;;;;;9.55;51.87;96230.28;4954556;29;20214;-64
2022/11/14 00:50:07;;;;;;;2.65;1.88;;;;;;;9.52;51.79;96227.28;4938736;29;20234;-65
2022/11/14 00:52:52;;;;;;;10.20;3.95;;;;;;;9.36;52.17;96220.00;4947254;28;20211;-64
2022/11/14 00:55:38;;;;;;;2.00;1.85;;;;;;;9.55;51.68;96224.22;4949932;29;20554;-65
2022/11/14 00:58:23;;;;;;;1.55;0.90;;;;;;;9.53;51.35;96223.63;4954099;29;20255;-63
2022/11/14 01:01:09;;;;;;;0.93;0.93;;;;;;;9.67;51.87;96232.97;4940945;29;20211;-64
2022/11/14 01:03:54;;;;;;;2.70;2.50;;;;;;;9.55;52.03;96219.81;4953505;29;20680;-66
2022/11/14 01:06:40;;;;;;;5.95;2.22;;;;;;;9.54;52.32;96227.88;4945768;29;20212;-64
2022/11/14 01:09:25;;;;;;;1.23;1.02;;;;;;;9.63;51.80;96226.56;4950792;28;20219;-66
2022/11/14 01:12:11;;;;;;;7.65;4.18;;;;;;;9.71;51.81;96218.41;4942484;29;20223;-65
2022/11/14 01:14:56;;;;;;;4.32;2.38;;;;;;;9.70;51.80;96216.84;4934849;29;20691;-64
2022/11/14 01:17:42;;;;;;;2.22;1.95;;;;;;;9.76;51.99;96215.97;4947713;29;20306;-62
2022/11/14 01:20:27;;;;;;;3.72;1.80;;;;;;;9.67;52.05;96212.81;4934034;29;20211;-64
2022/11/14 01:23:15;;;;;;;3.85;3.00;;;;;;;9.50;52.95;96211.00;4938750;28;20227;-64
2022/11/14 01:26:02;;;;;;;2.90;2.65;;;;;;;9.87;52.38;96208.16;4940441;28;20221;-66
2022/11/14 01:28:48;;;;;;;12.60;4.50;;;;;;;9.92;52.13;96205.72;4934366;29;20296;-63
2022/11/14 01:31:34;;;;;;;1.52;1.42;;;;;;;9.93;52.03;96191.59;4937177;29;20706;-65
2022/11/14 01:34:21;;;;;;;5.38;1.73;;;;;;;10.10;51.89;96191.84;4941455;29;20827;-64
2022/11/14 01:37:06;;;;;;;6.30;1.70;;;;;;;9.93;52.66;96198.66;4946483;29;20219;-65
2022/11/14 01:39:52;;;;;;;2.08;1.95;;;;;;;10.12;51.84;96189.78;4933874;29;20562;-63
2022/11/14 01:42:37;;;;;;;3.00;2.78;;;;;;;10.06;51.93;96191.44;4942986;28;20218;-65
2022/11/14 01:45:50;;;;;;;5.68;3.78;;;;;;;10.08;52.61;96185.97;4952643;28;20664;-64
2022/11/14 01:48:44;;;;;;;0.75;0.75;;;;;;;10.25;52.06;96179.16;4939489;29;20242;-64
2022/11/14 01:51:45;;;;;;;2.33;1.17;;;;;;;10.01;51.86;96177.41;4941607;29;20360;-63
2022/11/14 01:54:37;;;;;;;2.72;2.28;;;;;;;10.03;51.51;96175.38;4934167;29;20263;-65
2022/11/14 01:57:28;;;;;;;7.18;3.50;;;;;;;10.12;51.44;96169.66;4947166;28;20259;-65
2022/11/14 02:00:14;;;;;;;1.15;1.15;;;;;;;10.12;51.30;96174.09;4934243;29;20680;-64
2022/11/14 02:03:00;;;;;;;6.47;2.78;;;;;;;10.02;51.45;96168.53;4939591;29;20306;-64
2022/11/14 02:05:47;;;;;;;13.52;4.45;;;;;;;10.07;52.38;96166.06;4939331;28;20216;-65
2022/11/14 02:08:33;;;;;;;6.53;4.22;;;;;;;9.93;52.40;96164.59;4943387;29;20211;-65
2022/11/14 02:11:19;;;;;;;3.97;3.60;;;;;;;10.06;52.05;96167.06;4938011;29;20230;-65
2022/11/14 02:14:06;;;;;;;2.33;1.42;;;;;;;10.08;52.55;96163.22;4952570;28;20603;-64
2022/11/14 02:16:52;;;;;;;5.15;3.58;;;;;;;9.84;52.93;96145.78;4953046;28;20344;-66
2022/11/14 02:20:10;;;;;;;3.20;2.05;;;;;;;10.14;52.26;96166.81;4933944;29;20219;-64
2022/11/14 02:22:56;;;;;;;3.60;2.65;;;;;;;9.80;53.01;96170.00;4948707;29;20210;-63
2022/11/14 02:25:41;;;;;;;2.03;1.73;;;;;;;9.57;53.23;96169.88;4942042;29;20271;-65
2022/11/14 02:28:26;;;;;;;2.25;2.15;;;;;;;9.31;54.49;96176.16;4946626;28;20204;-64
2022/11/14 02:31:13;;;;;;;6.63;4.13;;;;;;;9.55;54.27;96169.28;4933536;29;20402;-64
2022/11/14 02:33:58;;;;;;;4.47;2.95;;;;;;;9.84;53.32;96174.59;4952139;29;20215;-65
2022/11/14 02:36:44;;;;;;;3.03;2.15;;;;;;;9.52;53.91;96173.16;4948512;29;20208;-65
2022/11/14 02:39:30;;;;;;;3.35;3.13;;;;;;;9.59;53.82;96165.22;4945358;28;20362;-65
2022/11/14 02:42:15;;;;;;;2.55;1.42;;;;;;;9.29;54.86;96167.72;4952209;29;20810;-65
2022/11/14 02:45:00;;;;;;;2.17;2.03;;;;;;;9.47;54.65;96169.59;4938304;29;20231;-64
2022/11/14 02:47:46;;;;;;;4.97;1.42;;;;;;;9.32;54.34;96169.13;4941632;28;20321;-65
2022/11/14 02:50:31;;;;;;;0.73;0.73;;;;;;;9.71;53.36;96171.31;4947097;29;20223;-64
2022/11/14 02:53:17;;;;;;;0.93;0.90;;;;;;;9.58;54.00;96155.78;4942427;29;20203;-64
2022/11/14 02:56:02;;;;;;;1.88;1.75;;;;;;;9.43;54.04;96161.38;4937378;29;20259;-65
2022/11/14 02:58:48;;;;;;;1.92;1.77;;;;;;;9.46;54.46;96160.13;4938780;28;20215;-64
2022/11/14 03:01:33;;;;;;;1.08;1.00;;;;;;;9.62;54.17;96164.78;4942663;28;20207;-65
2022/11/14 03:04:19;;;;;;;2.75;2.60;;;;;;;9.70;53.92;96156.63;4945654;28;20219;-63
2022/11/14 03:07:04;;;;;;;2.35;2.15;;;;;;;9.41;54.67;96154.75;4943981;29;20214;-65
2022/11/14 03:09:50;;;;;;;1.15;1.15;;;;;;;9.57;54.07;96160.22;4938425;29;20436;-65
2022/11/14 03:12:35;;;;;;;2.13;1.98;;;;;;;9.43;54.37;96158.75;4951465;28;20214;-64
2022/11/14 03:15:22;;;;;;;6.22;3.83;;;;;;;9.51;53.45;96155.03;4951965;29;20207;-65
2022/11/14 03:18:08;;;;;;;1.08;1.05;;;;;;;9.20;54.33;96156.75;4951581;28;20315;-64
2022/11/14 03:20:53;;;;;;;1.30;1.23;;;;;;;9.36;53.78;96158.00;4938876;29;20210;-64
2022/11/14 03:23:39;;;;;;;5.10;2.85;;;;;;;9.35;53.40;96155.59;4940229;28;20203;-65
2022/11/14 03:26:25;;;;;;;1.45;1.40;;;;;;;9.21;53.45;96158.34;4951820;28;20214;-64
2022/11/14 03:29:10;;;;;;;0.65;0.65;;;;;;;9.14;54.23;96155.00;4940058;29;20215;-63
2022/11/14 03:31:55;;;;;;;1.83;1.73;;;;;;;9.29;53.72;96166.94;4938210;29;20327;-65
2022/11/14 03:34:41;;;;;;;1.35;1.27;;;;;;;8.25;55.37;96169.34;4936318;28;20211;-65
2022/11/14 03:37:27;;;;;;;0.68;0.68;;;;;;;8.53;55.88;96159.31;4932141;29;20208;-65
2022/11/14 03:40:12;;;;;;;1.73;1.63;;;;;;;8.78;55.36;96165.38;4931756;29;20215;-64
2022/11/14 03:42:57;;;;;;;1.40;1.15;;;;;;;8.98;55.07;96155.53;4944626;28;20262;-65
2022/11/14 03:45:43;;;;;;;9.35;2.67;;;;;;;8.94;54.70;96159.59;4950971;29;20242;-64
2022/11/14 03:48:29;;;;;;;1.33;1.23;;;;;;;8.95;54.60;96153.38;4948473;29;20218;-64
2022/11/14 03:51:15;;;;;;;0.93;0.93;;;;;;;9.00;53.90;96156.13;4932655;29;20235;-64
2022/11/14 03:54:01;;;;;;;2.90;1.85;;;;;;;9.02;54.46;96148.88;4934320;29;20211;-64
2022/11/14 03:56:46;;;;;;;2.20;1.73;;;;;;;9.08;54.22;96153.25;4940506;29;20260;-64
2022/11/14 03:59:32;;;;;;;1.90;1.80;;;;;;;8.75;54.54;96155.34;4945246;29;20308;-65
2022/11/14 04:02:17;;;;;;;3.90;2.10;;;;;;;8.86;54.14;96157.28;4945179;28;20234;-65
2022/11/14 04:05:03;;;;;;;3.90;1.65;;;;;;;8.85;54.42;96155.66;4942012;28;20336;-63
2022/11/14 04:07:49;;;;;;;1.27;0.88;;;;;;;8.41;54.09;96149.78;4935054;29;20210;-64
2022/11/14 04:10:34;;;;;;;1.17;1.00;;;;;;;7.32;56.77;96135.97;4950704;28;20314;-64
2022/11/14 04:13:20;;;;;;;1.13;0.73;;;;;;;7.62;55.44;96154.53;4951182;28;20299;-64
2022/11/14 04:16:07;;;;;;;0.20;0.20;;;;;;;7.57;56.05;96160.38;4935359;29;20328;-64
2022/11/14 04:18:53;;;;;;;1.25;1.15;;;;;;;7.99;55.98;96159.03;4931913;29;20215;-63
2022/11/14 04:21:38;;;;;;;0.43;0.40;;;;;;;8.22;54.71;96156.69;4936514;29;20819;-63
2022/11/14 04:24:23;;;;;;;3.58;2.13;;;;;;;7.97;54.90;96158.44;4950294;28;20267;-64
2022/11/14 04:27:09;;;;;;;1.23;1.17;;;;;;;7.92;54.24;96138.16;4950718;29;20754;-64
2022/11/14 04:29:55;;;;;;;0.30;0.30;;;;;;;7.97;54.75;96145.38;4936651;29;20270;-65
2022/11/14 04:32:40;;;;;;;1.17;1.08;;;;;;;8.04;54.58;96151.34;4938238;28;20215;-64
2022/11/14 04:35:26;;;;;;;0.57;0.57;;;;;;;8.10;54.55;96155.75;4937959;29;20204;-65
2022/11/14 04:38:11;;;;;;;5.82;2.17;;;;;;;8.27;53.78;96146.44;4950492;28;20238;-65
2022/11/14 04:40:56;;;;;;;0.30;0.30;;;;;;;8.11;54.62;96146.91;4950501;29;21758;-63
2022/11/14 04:43:42;;;;;;;0.85;0.60;;;;;;;8.37;53.26;96140.75;4950281;29;20199;-65
2022/11/14 04:46:34;;;;;;;0.98;0.68;;;;;;;8.31;53.73;96137.16;4937218;29;20242;-63
2022/11/14 04:49:20;;;;;;;1.95;0.90;;;;;;;8.43;53.92;96145.91;4950541;29;20338;-63
2022/11/14 04:52:06;;;;;;;3.45;1.85;;;;;;;8.32;54.04;96138.75;4934226;29;20680;-64
2022/11/14 04:54:51;;;;;;;0.65;0.65;;;;;;;8.36;53.44;96145.16;4950299;28;20219;-65
2022/11/14 04:57:37;;;;;;;0.10;0.10;;;;;;;8.29;53.94;96143.59;4950468;28;20206;-64
2022/11/14 05:00:23;;;;;;;4.88;3.03;;;;;;;8.53;53.71;96141.03;4937910;29;20601;-65
2022/11/14 05:03:09;;;;;;;0.55;0.55;;;;;;;8.45;52.77;96143.91;4937034;29;20278;-64
2022/11/14 05:05:59;;;;;;;1.42;1.15;;;;;;;8.54;53.01;96144.47;4951022;29;20235;-63
2022/11/14 05:08:47;;;;;;;0.28;0.20;;;;;;;8.63;52.42;96143.97;4951741;28;20226;-62
2022/11/14 05:11:32;;;;;;;0.65;0.65;;;;;;;8.66;52.74;96146.16;4948345;29;20694;-64
2022/11/14 05:14:18;;;;;;;0.63;0.57;;;;;;;7.95;58.61;96155.22;4941749;29;20331;-64
2022/11/14 05:17:04;;;;;;;0.05;0.05;;;;;;;8.01;58.35;96151.78;4931102;29;20307;-64
2022/11/14 05:19:49;;;;;;;0.20;0.20;;;;;;;8.32;55.43;96143.97;4934114;29;20208;-66
2022/11/14 05:22:35;;;;;;;5.97;1.38;;;;;;;8.23;55.42;96159.06;4934357;29;20235;-64
2022/11/14 05:25:21;;;;;;;1.00;0.93;;;;;;;8.28;54.83;96153.28;4946018;29;20758;-63
2022/11/14 05:28:06;;;;;;;0.60;0.60;;;;;;;8.43;54.24;96156.38;4935803;29;20714;-64
2022/11/14 05:30:52;;;;;;;0.05;0.05;;;;;;;8.48;53.74;96159.16;4934319;29;20339;-64
2022/11/14 05:33:38;;;;;;;4.68;2.75;;;;;;;8.21;54.88;96162.94;4939993;29;20203;-64
2022/11/14 05:36:23;;;;;;;0.95;0.90;;;;;;;8.44;54.21;96157.97;4952137;28;20267;-63
2022/11/14 05:39:08;;;;;;;0.10;0.10;;;;;;;8.63;53.29;96154.41;4943556;29;20755;-63
2022/11/14 05:41:54;;;;;;;0.50;0.50;;;;;;;8.62;53.83;96159.84;4939213;29;20235;-62
2022/11/14 05:44:40;;;;;;;4.47;1.17;;;;;;;8.68;53.41;96165.06;4953545;29;20206;-64
2022/11/14 05:47:25;;;;;;;0.15;0.15;;;;;;;8.57;53.40;96163.13;4953158;29;20203;-63
2022/11/14 05:50:10;;;;;;;0.52;0.52;;;;;;;8.56;54.11;96166.72;4943075;29;20199;-65
2022/11/14 05:52:56;;;;;;;2.05;0.85;;;;;;;8.53;54.02;96167.16;4933510;29;20598;-64
2022/11/14 05:55:41;;;;;;;1.52;1.05;;;;;;;8.57;53.75;96162.31;4933161;29;20223;-65
2022/11/14 05:58:27;;;;;;;1.13;1.08;;;;;;;8.68;53.80;96170.28;4935794;29;20605;-65
2022/11/14 06:01:17;;;;;;;4.80;1.23;;;;;;;8.43;54.54;96158.97;4933953;29;20204;-74
2022/11/14 06:04:05;;;;;;;0.22;0.22;;;;;;;8.61;54.61;96169.50;4946610;29;20334;-74
2022/11/14 06:06:51;;;;;;;2.10;1.98;;;;;;;7.96;55.58;96154.19;4933940;29;20215;-75
2022/11/14 06:09:36;;;;;;;1.38;1.27;;;;;;;8.55;54.69;96165.16;4947266;29;20568;-64
2022/11/14 06:12:21;;;;;;;3.50;1.85;;;;;;;8.68;54.33;96169.47;4945343;29;20226;-63
2022/11/14 06:15:07;;;;;;;0.20;0.20;;;;;;;8.65;53.85;96178.53;4946051;29;20673;-63
2022/11/14 06:17:53;;;;;;;0.40;0.40;;;;;;;8.72;53.75;96184.50;4942491;28;20343;-60
2022/11/14 06:20:38;;;;;;;0.65;0.65;;;;;;;8.58;54.68;96185.63;4946550;28;20318;-61
2022/11/14 06:23:24;;;;;;;2.10;1.52;;;;;;;8.80;54.18;96181.63;4933469;29;20287;-62
2022/11/14 06:26:22;;;;;;;0.50;0.50;;;;;;;8.90;54.03;96181.97;4950287;29;20203;-61
2022/11/14 06:29:09;;;;;;;2.67;2.10;;;;;;;8.88;54.13;96183.19;4938239;29;20231;-60
2022/11/14 06:31:54;;;;;;;2.30;1.65;;;;;;;8.96;54.12;96180.28;4952315;28;20242;-60
2022/11/14 06:34:40;;;;;;;0.30;0.30;;;;;;;8.56;54.38;96179.00;4951294;28;20202;-64
2022/11/14 06:37:25;;;;;;;2.10;1.30;;;;;;;8.54;54.71;96179.19;4949784;29;20258;-63
2022/11/14 06:40:16;;;;;;;1.10;1.05;;;;;;;8.38;55.07;96169.25;4950100;29;20674;-65
2022/11/14 06:43:02;;;;;;;0.68;0.68;;;;;;;8.73;55.08;96178.28;4938062;29;20218;-64
2022/11/14 06:45:47;;;;;;;0.17;0.17;;;;;;;8.67;54.80;96179.13;4948550;28;20270;-64
2022/11/14 06:48:34;;;;;;;1.35;0.98;;;;;;;8.62;55.03;96173.72;4943210;28;20223;-63
2022/11/14 06:51:20;;;;;;;1.05;1.05;;;;;;;8.73;54.96;96175.66;4933551;29;20254;-64
2022/11/14 06:54:05;;;;;;;0.20;0.20;;;;;;;8.86;55.19;96167.72;4946431;29;20576;-62
2022/11/14 06:56:50;;;;;;;0.88;0.88;;;;;;;9.03;54.29;96168.78;4944465;28;20695;-61
2022/11/14 06:59:36;;;;;;;1.25;1.00;;;;;;;8.53;55.14;96172.38;4946313;28;20228;-64
2022/11/14 07:02:21;;;;;;;1.73;1.63;;;;;;;8.48;55.58;96164.41;4945941;29;20234;-62
2022/11/14 07:05:07;;;;;;;0.10;0.10;;;;;;;8.82;54.37;96156.09;4941851;29;20210;-65
2022/11/14 07:07:52;;;;;;;0.70;0.70;;;;;;;8.94;54.59;96159.59;4948003;28;20682;-67
2022/11/14 07:10:39;;;;;;;4.38;1.80;;;;;;;8.82;55.25;96166.53;4945367;29;20214;-63
2022/11/14 07:13:24;;;;;;;1.80;1.67;;;;;;;9.05;54.57;96156.28;4952091;28;20218;-64
2022/11/14 07:16:10;;;;;;;0.70;0.70;;;;;;;8.98;54.89;96160.78;4938223;28;20223;-64
2022/11/14 07:18:59;;;;;;;0.52;0.32;;;;;;;9.28;54.31;96163.53;4951877;28;20227;-65
2022/11/14 07:21:45;;;;;;;1.75;1.58;;;;;;;9.30;54.51;96163.31;4951041;28;20267;-64
2022/11/14 07:24:30;;;;;;;0.73;0.73;;;;;;;9.38;54.39;96163.03;4949919;29;20215;-63
2022/11/14 07:27:15;;;;;;;0.38;0.38;;;;;;;9.47;53.82;96162.50;4941605;29;20286;-63
2022/11/14 07:30:01;;;;;;;0.40;0.40;;;;;;;9.34;53.62;96164.47;4946940;28;20271;-63
2022/11/14 07:32:54;;;;;;;0.80;0.80;;;;;;;9.42;53.82;96162.38;4944680;29;20214;-64
2022/11/14 07:35:40;;;;;;;1.05;0.68;;;;;;;9.52;53.81;96146.97;4940716;29;20673;-64
2022/11/14 07:38:26;;;;;;;0.65;0.65;;;;;;;9.28;53.48;96162.72;4950917;28;20292;-62
2022/11/14 07:41:14;;;;;;;1.90;1.52;;;;;;;8.41;55.80;96155.78;4938350;29;20700;-64
2022/11/14 07:44:00;;;;;;;0.22;0.22;;;;;;;8.81;55.08;96164.94;4932203;29;20684;-64
2022/11/14 07:46:45;;;;;;;2.80;1.95;;;;;;;8.82;56.68;96143.03;4945088;29;20246;-65
2022/11/14 07:49:30;;;;;;;1.02;1.00;;;;;;;9.03;56.65;96147.06;4942797;29;20969;-64
2022/11/14 07:52:16;;;;;;;1.00;0.63;;;;;;;9.33;56.08;96136.69;4932835;29;20242;-63
2022/11/14 07:55:02;;;;;;;4.30;1.40;;;;;;;9.79;53.95;96148.28;4932283;29;20207;-64
2022/11/14 07:57:52;;;;;;;2.03;1.00;;;;;;;9.53;54.05;96147.75;4951087;28;20402;-64
2022/11/14 08:00:38;;;;;;;2.70;1.55;;;;;;;9.40;54.24;96147.94;4937350;29;20208;-63
2022/11/14 08:03:23;;;;;;;0.35;0.35;;;;;;;9.59;54.12;96144.28;4941734;28;20211;-64
2022/11/14 08:06:10;;;;;;;2.58;1.70;;;;;;;10.00;53.34;96144.38;4948971;29;20215;-64
2022/11/14 08:08:56;;;;;;;4.25;2.38;;;;;;;9.50;54.34;96140.34;4938667;29;20352;-69
2022/11/14 08:11:47;;;;;;;0.55;0.55;;;;;;;9.04;54.52;96144.25;4931750;29;20238;-64
2022/11/14 08:14:33;;;;;;;0.35;0.35;;;;;;;9.17;54.74;96146.72;4945385;28;20211;-67
2022/11/14 08:17:20;;;;;;;2.65;1.65;;;;;;;9.37;54.77;96138.69;4943600;29;20226;-63
2022/11/14 08:20:07;;;;;;;1.45;1.27;;;;;;;9.84;53.29;96134.50;4944474;29;20655;-63
2022/11/14 08:23:08;;;;;;;0.10;0.10;;;;;;;9.68;53.81;96142.97;4944859;28;20210;-63
2022/11/14 08:25:56;;;;;;;1.10;1.02;;;;;;;9.73;54.38;96143.09;4944194;28;20601;-63
2022/11/14 08:28:41;;;;;;;2.25;2.05;;;;;;;9.67;54.13;96138.75;4931488;29;20695;-64
2022/11/14 08:31:27;;;;;;;1.13;1.13;;;;;;;9.76;54.17;96124.34;4947049;29;20690;-63
2022/11/14 08:34:13;;;;;;;1.13;1.05;;;;;;;9.58;54.87;96114.69;4950746;28;20293;-64
2022/11/14 08:37:00;;;;;;;6.78;1.63;;;;;;;10.43;53.41;96133.75;4950827;29;20203;-62
2022/11/14 08:39:45;;;;;;;0.60;0.57;;;;;;;10.39;52.68;96128.16;4950629;29;20686;-63
2022/11/14 08:42:31;;;;;;;1.45;1.35;;;;;;;10.19;53.30;96132.88;4941814;29;20693;-64
2022/11/14 08:45:16;;;;;;;0.80;0.80;;;;;;;10.54;53.05;96127.75;4935131;29;20238;-64
2022/11/14 08:48:02;;;;;;;0.63;0.63;;;;;;;10.49;52.64;96131.03;4950620;28;20247;-64
2022/11/14 08:50:47;;;;;;;1.17;1.15;;;;;;;10.39;52.70;96125.53;4944200;29;20211;-64
2022/11/14 08:53:33;;;;;;;2.15;1.15;;;;;;;9.90;54.29;96123.16;4946042;28;20302;-64
2022/11/14 08:56:18;;;;;;;1.58;1.48;;;;;;;10.42;53.15;96122.47;4941660;29;20203;-63
2022/11/14 08:59:04;;;;;;;1.08;1.02;;;;;;;10.10;53.75;96111.44;4940877;29;20557;-63
2022/11/14 09:01:50;;;;;;;2.30;2.15;;;;;;;10.51;52.93;96115.88;4954372;28;20203;-64
2022/11/14 09:04:36;;;;;;;2.57;2.43;;;;;;;10.68;52.99;96105.53;4940448;29;20207;-63
2022/11/14 09:07:21;;;;;;;3.30;1.77;;;;;;;10.34;53.25;96101.84;4940064;29;20447;-67
2022/11/14 09:10:07;;;;;;;0.45;0.45;;;;;;;10.68;52.49;96090.63;4953455;29;20210;-64
2022/11/14 09:12:57;;;;;;;1.95;1.80;;;;;;;10.92;51.80;96094.03;4939683;28;20279;-62
2022/11/14 09:15:43;;;;;;;2.13;1.70;;;;;;;10.82;51.91;96091.22;4952573;29;20198;-63
2022/11/14 09:18:29;;;;;;;0.97;0.97;;;;;;;10.84;52.65;96089.94;4941646;28;20559;-63
2022/11/14 09:21:15;;;;;;;2.00;1.90;;;;;;;10.88;52.89;96083.22;4951215;28;20932;-65
2022/11/14 09:24:01;;;;;;;0.10;0.10;;;;;;;11.12;51.38;96082.19;4934156;29;20699;-63
2022/11/14 09:26:48;;;;;;;1.73;1.53;;;;;;;10.61;53.25;96082.06;4953556;28;20447;-63
2022/11/14 09:29:40;;;;;;;9.63;2.97;;;;;;;10.58;53.57;96074.66;4952953;29;20450;-62
2022/11/14 09:32:27;;;;;;;2.45;2.25;;;;;;;11.02;52.71;96070.69;4942901;29;20586;-64
2022/11/14 09:35:12;;;;;;;2.87;2.47;;;;;;;11.18;51.84;96073.38;4939044;28;20219;-63
2022/11/14 09:38:03;;;;;;;6.30;2.90;;;;;;;10.55;53.14;96072.47;4952862;29;20966;-65
2022/11/14 09:41:07;;;;;;;3.13;1.10;;;;;;;11.03;51.76;96073.06;4943133;29;20522;-63
2022/11/14 09:43:59;;;;;;;1.80;1.70;;;;;;;10.62;53.11;96073.16;4946292;28;20279;-64
2022/11/14 09:46:51;;;;;;;7.50;1.67;;;;;;;10.27;54.24;96071.53;4948970;29;20962;-64
2022/11/14 09:49:45;;;;;;;0.83;0.83;;;;;;;10.08;53.74;96066.31;4953021;29;20856;-63
2022/11/14 09:52:45;;;;;;;0.25;0.25;;;;;;;10.76;52.50;96061.44;4939546;29;20638;-66
2022/11/14 09:55:33;;;;;;;2.47;2.15;;;;;;;11.17;52.14;96058.69;4939468;29;20332;-65
2022/11/14 09:58:21;;;;;;;1.27;1.27;;;;;;;11.44;51.35;96053.72;4953124;28;20222;-63
2022/11/14 10:01:16;;;;;;;1.80;1.60;;;;;;;11.44;51.99;96053.72;4935078;29;20462;-63
2022/11/14 10:04:11;;;;;;;2.30;1.70;;;;;;;12.20;49.61;96042.84;4947249;28;20446;-64
2022/11/14 10:07:34;;;;;;;1.07;0.70;;;;;;;12.39;49.90;96031.03;4953311;29;20472;-64
2022/11/14 10:10:38;;;;;;;5.57;1.93;;;;;;;10.91;53.48;96038.16;4942830;29;20446;-63
2022/11/14 10:13:26;;;;;;;2.20;2.00;;;;;;;11.95;51.08;96024.00;4952874;28;20533;-64
2022/11/14 10:16:39;;;;;;;6.00;1.20;;;;;;;11.30;52.65;96031.38;4936398;29;20456;-64
2022/11/14 10:19:34;;;;;;;1.60;1.17;;;;;;;11.39;52.20;96023.94;4934529;29;20435;-65
2022/11/14 10:22:51;;;;;;;7.60;3.53;;;;;;;12.02;50.40;96011.53;4940707;29;20508;-63
2022/11/14 10:26:01;;;;;;;7.03;4.10;;;;;;;12.12;50.30;96006.41;4933136;29;20500;-62
2022/11/14 10:28:53;;;;;;;1.50;1.33;;;;;;;11.49;52.38;96000.53;4933286;29;20513;-64
2022/11/14 10:31:51;;;;;;;6.33;2.87;;;;;;;12.13;51.58;95997.53;4950188;29;21033;-64
2022/11/14 10:34:55;;;;;;;2.60;2.40;;;;;;;13.27;48.12;95985.47;4951835;28;20503;-65
2022/11/14 10:38:03;;;;;;;2.20;2.10;;;;;;;12.50;50.06;95985.47;4952355;28;20969;-63
2022/11/14 10:40:53;;;;;;;1.33;1.23;;;;;;;12.11;50.19;95981.19;4952365;28;20499;-65
2022/11/14 10:43:49;;;;;;;2.70;2.47;;;;;;;12.24;51.03;95967.75;4933524;29;20812;-63
2022/11/14 10:46:44;;;;;;;0.63;0.63;;;;;;;13.15;48.88;95973.28;4933543;29;20491;-65
2022/11/14 10:49:32;;;;;;;6.77;6.13;;;;;;;12.45;51.83;95977.53;4952015;29;20454;-65
2022/11/14 10:52:24;;;;;;;2.93;2.73;;;;;;;13.30;50.02;95961.31;4934635;29;20530;-63
2022/11/14 10:55:15;;;;;;;1.27;1.17;;;;;;;12.52;49.57;95954.50;4940627;28;20451;-64
2022/11/14 10:58:01;;;;;;;1.30;1.20;;;;;;;13.08;50.16;95956.84;4933053;29;20431;-68
2022/11/14 11:00:46;;;;;;;3.03;2.43;;;;;;;13.60;49.37;95944.00;4947737;29;20514;-64
2022/11/14 11:03:43;;;;;;;1.53;1.27;;;;;;;13.84;48.08;95924.22;4951913;29;20526;-64
2022/11/14 11:06:29;;;;;;;0.77;0.77;;;;;;;13.64;48.16;95949.56;4951683;29;20566;-64
2022/11/14 11:12:36;;;;;;;1.87;1.63;;;;;;;14.52;46.54;95939.28;4932929;29;20487;-63
2022/11/14 11:15:27;;;;;;;1.27;1.17;;;;;;;13.39;48.27;95933.53;4950594;28;20570;-63
2022/11/14 11:18:26;;;;;;;2.47;2.27;;;;;;;13.47;48.64;95928.59;4937776;28;20857;-65
2022/11/14 11:21:15;;;;;;;3.67;3.03;;;;;;;13.44;48.97;95933.56;4951475;29;20506;-64
2022/11/14 11:24:01;;;;;;;13.50;4.60;;;;;;;13.34;48.77;95933.47;4940506;29;20571;-63
2022/11/14 11:26:46;;;;;;;2.23;1.97;;;;;;;14.52;46.62;95920.81;4950943;29;20451;-65
2022/11/14 11:29:31;;;;;;;2.97;2.10;;;;;;;13.68;47.52;95921.69;4936646;29;20467;-63
2022/11/14 11:32:25;;;;;;;2.77;2.57;;;;;;;14.48;46.54;95918.94;4940558;29;20489;-64
2022/11/14 11:35:14;;;;;;;5.30;2.80;;;;;;;14.30;46.97;95920.13;4932288;29;20443;-63
2022/11/14 11:38:02;;;;;;;1.93;1.07;;;;;;;14.69;46.36;95915.38;4931750;29;20475;-64
2022/11/14 11:40:51;;;;;;;4.10;2.93;;;;;;;14.96;45.83;95911.53;4940722;29;20459;-64
2022/11/14 11:43:55;;;;;;;2.70;2.50;;;;;;;15.50;43.65;95916.50;4932694;29;20531;-64
2022/11/14 11:46:59;;;;;;;2.07;1.97;;;;;;;16.38;42.72;95908.09;4933247;29;20894;-62
2022/11/14 11:49:50;;;;;;;4.70;3.37;;;;;;;16.90;40.99;95900.56;4938102;29;20463;-63
2022/11/14 11:52:42;;;;;;;2.97;2.13;;;;;;;18.53;38.27;95886.81;4932486;29;20486;-64
2022/11/14 11:55:53;;;;;;;2.87;2.23;;;;;;;19.60;36.46;95873.84;4931754;29;20538;-63
2022/11/14 11:58:47;;;;;;;3.07;2.77;;;;;;;20.49;34.50;95870.06;4943290;29;20502;-64
2022/11/14 12:01:32;;;;;;;5.70;3.10;;;;;;;20.01;34.89;95864.97;4931802;29;20452;-65
2022/11/14 12:04:18;;;;;;;3.83;2.63;;;;;;;20.83;33.81;95859.81;4947399;29;20459;-63
2022/11/14 12:07:14;;;;;;;7.33;3.50;;;;;;;20.52;34.00;95864.94;4939565;29;20460;-64
2022/11/14 12:10:06;;;;;;;2.57;2.47;;;;;;;20.55;34.36;95858.22;4939258;29;20446;-64
2022/11/14 12:13:44;;;;;;;4.13;3.27;;;;;;;22.43;31.47;95854.63;4950339;28;20822;-64
2022/11/14 12:17:02;;;;;;;4.53;2.77;;;;;;;23.54;30.01;95841.69;4950427;29;20517;-63
2022/11/14 12:20:05;;;;;;;3.67;2.60;;;;;;;23.38;29.40;95837.88;4946496;29;20526;-63
2022/11/14 12:23:28;;;;;;;3.30;3.00;;;;;;;21.67;32.15;95837.00;4931286;29;20467;-64
2022/11/14 12:26:33;;;;;;;2.20;2.00;;;;;;;22.32;31.17;95827.41;4931539;29;20520;-64
2022/11/14 12:29:44;;;;;;;3.47;3.23;;;;;;;22.68;30.89;95822.72;4935140;29;20289;-63
2022/11/14 12:32:36;;;;;;;3.07;2.23;;;;;;;23.71;29.11;95801.53;4946033;29;20370;-63
2022/11/14 12:35:26;;;;;;;2.10;1.90;;;;;;;23.88;29.30;95825.59;4954114;28;20207;-65
2022/11/14 12:38:14;;;;;;;4.60;4.17;;;;;;;24.68;27.85;95817.56;4940593;28;20203;-66
2022/11/14 12:41:01;;;;;;;3.40;3.10;;;;;;;25.20;27.08;95815.41;4954182;28;20739;-63
2022/11/14 12:43:46;;;;;;;7.67;4.17;;;;;;;25.24;28.40;95808.28;4940301;28;20202;-64
2022/11/14 12:47:04;;;;;;;2.23;2.03;;;;;;;25.65;27.33;95804.88;4940252;29;20243;-63
2022/11/14 12:49:52;;;;;;;3.07;2.77;;;;;;;26.43;26.49;95798.44;4941075;29;20215;-63
2022/11/14 12:52:52;;;;;;;6.13;3.37;;;;;;;26.70;27.02;95791.66;4940139;29;20295;-63
2022/11/14 12:55:44;;;;;;;3.07;2.83;;;;;;;26.22;25.46;95797.72;4938549;29;20207;-64
2022/11/14 12:58:29;;;;;;;4.70;3.70;;;;;;;25.71;26.90;95798.19;4934564;29;20219;-64
2022/11/14 13:01:29;;;;;;;3.10;2.47;;;;;;;26.14;26.24;95793.22;4947807;29;20211;-65
2022/11/14 13:04:38;;;;;;;2.10;1.90;;;;;;;26.42;26.70;95788.78;4950238;28;20210;-64
2022/11/14 13:07:42;;;;;;;5.47;3.93;;;;;;;25.73;26.86;95787.91;4940144;28;20688;-64
2022/11/14 13:10:37;;;;;;;5.57;3.50;;;;;;;25.88;27.08;95790.75;4942411;29;20604;-64
2022/11/14 13:22:48;;;;;;;3.63;2.90;;;;;;;24.89;28.12;95778.22;4940045;29;20521;-64
2022/11/14 13:25:34;;;;;;;8.47;4.50;;;;;;;24.81;28.48;95779.06;4953626;28;20292;-64
2022/11/14 13:28:35;;;;;;;3.40;3.10;;;;;;;24.93;28.39;95765.72;4953282;28;20386;-65
2022/11/14 13:31:40;;;;;;;9.87;4.43;;;;;;;24.66;28.38;95765.38;4953239;29;20224;-65
2022/11/14 13:35:05;;;;;;;15.97;4.83;;;;;;;23.86;29.00;95769.72;4941001;29;20215;-64